Time;durP1;ratioP1;P1;durP2;ratioP2;P2;SDS_P1;SDS_P2;PMS_P1;PMS_P2;Temp;Humidity;BMP_temperature;BMP_pressure;BME280_temperature;BME280_humidity;BME280_pressure;Samples;Min_cycle;Max_cycle;Signal;HPM_P1;HPM_P2
2022/01/26 00:07:18;;;;;;;43.30;21.80;;;7.70;56.80;;;;;;4979681;28;20435;-43
2022/01/26 00:09:44;;;;;;;48.03;24.70;;;7.80;56.80;;;;;;4976647;28;20434;-43
2022/01/26 00:12:10;;;;;;;37.23;19.87;;;7.80;56.70;;;;;;4975571;28;20253;-43
2022/01/26 00:14:40;;;;;;;40.07;22.43;;;7.80;56.80;;;;;;4975282;28;20250;-44
2022/01/26 00:17:06;;;;;;;40.77;22.03;;;7.70;57.00;;;;;;4975728;28;20430;-43
2022/01/26 00:19:47;;;;;;;44.70;23.27;;;7.70;57.10;;;;;;4976076;28;20850;-44
2022/01/26 00:22:31;;;;;;;43.10;22.73;;;7.70;56.90;;;;;;4971672;28;20200;-44
2022/01/26 00:27:54;;;;;;;46.17;23.50;;;7.80;56.70;;;;;;4970300;28;20450;-43
2022/01/26 00:38:42;;;;;;;40.70;20.77;;;7.80;57.00;;;;;;4973178;28;20481;-43
2022/01/26 00:41:13;;;;;;;45.77;22.67;;;7.80;57.00;;;;;;4987623;28;20824;-43
2022/01/26 00:43:47;;;;;;;43.83;21.50;;;7.80;57.10;;;;;;4974700;28;20446;-43
2022/01/26 00:46:13;;;;;;;41.30;21.43;;;7.80;56.90;;;;;;4975129;28;20561;-43
2022/01/26 00:48:39;;;;;;;45.77;22.93;;;7.80;57.00;;;;;;4975331;28;20989;-43
2022/01/26 00:51:08;;;;;;;44.10;23.87;;;7.80;56.90;;;;;;4975930;28;20787;-43
2022/01/26 00:53:39;;;;;;;42.63;21.93;;;7.80;57.10;;;;;;4975022;28;20443;-43
2022/01/26 00:56:05;;;;;;;48.13;25.47;;;7.90;57.20;;;;;;4974988;28;20835;-43
2022/01/26 00:58:32;;;;;;;47.43;23.70;;;7.90;57.20;;;;;;4975221;28;20526;-45
2022/01/26 01:01:00;;;;;;;46.27;22.63;;;7.90;57.00;;;;;;4975734;28;20466;-43
2022/01/26 01:03:27;;;;;;;48.87;24.13;;;7.90;57.00;;;;;;4974008;28;20438;-43
2022/01/26 01:08:21;;;;;;;45.40;22.90;;;8.00;57.00;;;;;;4975260;28;20474;-43
2022/01/26 01:10:49;;;;;;;49.60;24.83;;;8.00;57.00;;;;;;4973854;28;20630;-43
2022/01/26 01:13:19;;;;;;;52.13;23.93;;;7.90;56.90;;;;;;4974719;28;20482;-43
2022/01/26 01:15:47;;;;;;;53.67;25.80;;;7.90;57.00;;;;;;4976210;28;20423;-44
2022/01/26 01:31:12;;;;;;;58.17;23.70;;;7.70;57.80;;;;;;4974903;28;20462;-43
2022/01/26 01:33:43;;;;;;;52.43;24.77;;;7.70;57.50;;;;;;4974525;28;20450;-43
2022/01/26 01:36:11;;;;;;;44.13;21.87;;;7.60;57.60;;;;;;4974400;28;20442;-43
2022/01/26 01:38:40;;;;;;;52.40;26.10;;;7.60;57.80;;;;;;4972479;28;20521;-43
2022/01/26 01:41:06;;;;;;;45.40;23.00;;;7.70;57.80;;;;;;4977852;28;20486;-43
2022/01/26 01:43:31;;;;;;;55.17;25.07;;;7.70;57.90;;;;;;4975544;28;20926;-43
2022/01/26 01:45:57;;;;;;;60.00;25.53;;;7.80;57.80;;;;;;4976549;28;20195;-43
2022/01/26 01:48:29;;;;;;;56.57;26.07;;;7.70;57.70;;;;;;4973954;28;20409;-43
2022/01/26 01:50:58;;;;;;;52.30;24.33;;;7.80;57.90;;;;;;4974853;28;20614;-43
2022/01/26 01:56:17;;;;;;;52.60;24.80;;;7.80;58.00;;;;;;4971771;28;20994;-43
2022/01/26 01:58:43;;;;;;;52.30;24.50;;;7.80;57.80;;;;;;4974475;28;20570;-43
2022/01/26 02:01:09;;;;;;;58.73;25.13;;;7.90;57.80;;;;;;4974492;28;20545;-43
2022/01/26 02:03:35;;;;;;;57.20;25.97;;;7.90;57.70;;;;;;4974111;28;20778;-43
2022/01/26 02:06:01;;;;;;;57.27;27.50;;;7.90;57.80;;;;;;4972655;28;20214;-43
2022/01/26 02:08:26;;;;;;;49.43;25.37;;;7.90;57.70;;;;;;4974189;28;20187;-44
2022/01/26 02:10:52;;;;;;;56.37;26.00;;;8.00;57.70;;;;;;4974581;28;20972;-43
2022/01/26 02:13:33;;;;;;;57.43;25.67;;;7.90;57.50;;;;;;4973787;28;20685;-43
2022/01/26 02:16:10;;;;;;;50.03;24.20;;;7.90;57.60;;;;;;4973944;28;20578;-43
2022/01/26 02:57:05;;;;;;;56.43;25.50;;;7.80;58.00;;;;;;4972874;28;20788;-43
2022/01/26 02:59:56;;;;;;;60.40;27.23;;;7.80;58.20;;;;;;4973448;28;20806;-43
2022/01/26 03:02:31;;;;;;;62.73;26.83;;;7.80;58.30;;;;;;4971076;28;20498;-43
2022/01/26 03:04:59;;;;;;;61.20;26.80;;;7.80;58.40;;;;;;4961090;28;20811;-43
2022/01/26 03:10:05;;;;;;;43.60;22.70;;;7.60;59.00;;;;;;4973344;28;20457;-43
2022/01/26 03:12:43;;;;;;;43.70;22.20;;;7.60;58.60;;;;;;4972609;28;20665;-43
2022/01/26 03:15:15;;;;;;;40.10;20.60;;;7.70;58.30;;;;;;4973176;28;20431;-43
2022/01/26 03:20:14;;;;;;;39.37;21.90;;;7.50;57.90;;;;;;4973236;28;20442;-43
2022/01/26 03:28:22;;;;;;;37.17;20.03;;;7.60;57.50;;;;;;4971022;28;21021;-43
2022/01/26 03:31:24;;;;;;;31.63;19.00;;;7.50;57.30;;;;;;4973348;28;20470;-43
2022/01/26 03:36:24;;;;;;;31.67;18.13;;;7.40;57.20;;;;;;4972037;28;20793;-43
2022/01/26 03:38:58;;;;;;;31.50;19.80;;;7.10;57.50;;;;;;4972915;28;20770;-43
2022/01/26 03:41:37;;;;;;;33.33;18.27;;;7.10;57.80;;;;;;4972997;28;20470;-43
2022/01/26 03:44:04;;;;;;;27.80;17.37;;;7.00;57.80;;;;;;4977965;28;20421;-43
2022/01/26 03:46:29;;;;;;;34.73;18.90;;;6.90;58.00;;;;;;4976003;28;20427;-43
2022/01/26 03:48:55;;;;;;;28.90;16.50;;;7.00;57.90;;;;;;4973246;28;20919;-43
2022/01/26 03:51:22;;;;;;;33.43;19.30;;;7.10;57.70;;;;;;4972181;28;20670;-43
2022/01/26 03:53:48;;;;;;;31.73;18.90;;;7.10;57.50;;;;;;4972764;28;20206;-43
2022/01/26 03:56:13;;;;;;;29.47;17.40;;;7.10;57.60;;;;;;4970717;28;20433;-44
2022/01/26 03:58:39;;;;;;;37.57;19.00;;;7.10;57.50;;;;;;4972665;28;20714;-43
2022/01/26 04:01:05;;;;;;;33.33;17.33;;;7.10;57.80;;;;;;4972819;28;20199;-44
2022/01/26 04:03:30;;;;;;;35.00;19.20;;;7.20;57.80;;;;;;4971497;28;20221;-44
2022/01/26 04:05:56;;;;;;;29.67;17.70;;;7.20;57.50;;;;;;4972031;28;20207;-43
2022/01/26 04:08:29;;;;;;;34.20;18.00;;;7.20;57.60;;;;;;4971510;28;20230;-43
2022/01/26 04:13:27;;;;;;;35.93;17.60;;;7.10;57.60;;;;;;4971915;28;20494;-43
2022/01/26 04:15:52;;;;;;;33.23;19.53;;;7.10;57.70;;;;;;4985016;28;20429;-43
2022/01/26 04:18:24;;;;;;;43.00;19.97;;;7.10;57.80;;;;;;4972132;28;20191;-43
2022/01/26 04:20:53;;;;;;;32.63;19.67;;;7.10;57.80;;;;;;4972734;28;20223;-44
2022/01/26 04:23:27;;;;;;;35.70;18.90;;;7.10;57.80;;;;;;4971502;28;20926;-43
2022/01/26 04:25:54;;;;;;;38.93;20.40;;;7.10;57.80;;;;;;4971587;28;20469;-43
2022/01/26 04:28:26;;;;;;;38.90;19.10;;;7.10;57.90;;;;;;4971725;28;20434;-43
2022/01/26 04:30:52;;;;;;;40.40;19.70;;;7.00;57.90;;;;;;4972337;28;20437;-43
2022/01/26 04:33:18;;;;;;;39.13;20.00;;;7.00;58.10;;;;;;4972011;28;20485;-43
2022/01/26 04:35:47;;;;;;;38.53;18.60;;;7.10;58.10;;;;;;4971781;28;20192;-43
2022/01/26 04:38:38;;;;;;;36.60;19.07;;;7.10;57.90;;;;;;4973775;28;20278;-43
2022/01/26 04:41:25;;;;;;;34.37;18.00;;;7.20;57.70;;;;;;4986234;28;20478;-43
2022/01/26 04:43:54;;;;;;;34.37;18.60;;;7.30;57.60;;;;;;4979529;28;20442;-43
2022/01/26 04:46:20;;;;;;;35.87;18.60;;;7.20;57.30;;;;;;4980243;28;20497;-43
2022/01/26 04:48:45;;;;;;;35.57;19.10;;;7.30;57.30;;;;;;4976087;28;20415;-43
2022/01/26 04:51:11;;;;;;;36.20;19.00;;;7.30;57.20;;;;;;4973955;28;20234;-44
2022/01/26 04:53:37;;;;;;;38.00;19.93;;;7.20;57.40;;;;;;4974773;28;20643;-43
2022/01/26 04:56:03;;;;;;;32.10;17.97;;;7.30;57.50;;;;;;4975285;28;20202;-44
2022/01/26 04:58:28;;;;;;;35.00;18.67;;;7.20;57.30;;;;;;4975381;28;20202;-43
2022/01/26 05:00:54;;;;;;;32.40;17.93;;;7.30;57.30;;;;;;4975825;28;20431;-43
2022/01/26 05:03:19;;;;;;;36.10;18.87;;;7.20;57.30;;;;;;4975190;28;20187;-43
2022/01/26 05:05:45;;;;;;;35.80;19.87;;;7.20;57.50;;;;;;4974020;28;20231;-44
2022/01/26 05:08:10;;;;;;;35.70;20.03;;;7.20;57.30;;;;;;4975161;28;20631;-44
2022/01/26 05:10:38;;;;;;;34.50;19.30;;;7.20;57.40;;;;;;4975152;28;20211;-43
2022/01/26 05:13:04;;;;;;;35.53;19.30;;;7.30;57.40;;;;;;4975468;28;20628;-44
2022/01/26 05:15:30;;;;;;;31.50;19.10;;;7.30;57.20;;;;;;4975615;28;20437;-44
2022/01/26 05:17:55;;;;;;;31.77;18.30;;;7.20;57.00;;;;;;4974697;28;20587;-44
2022/01/26 05:20:21;;;;;;;29.07;17.43;;;7.20;57.20;;;;;;4973882;28;20558;-44
2022/01/26 05:22:47;;;;;;;33.13;18.53;;;7.30;57.20;;;;;;4974867;28;20298;-44
2022/01/26 05:25:13;;;;;;;33.80;18.20;;;7.20;57.10;;;;;;4974819;28;20203;-43
2022/01/26 05:27:39;;;;;;;31.13;17.63;;;7.20;57.20;;;;;;4974637;28;20260;-44
2022/01/26 05:30:06;;;;;;;31.97;18.00;;;7.20;57.30;;;;;;4975158;28;20432;-44
2022/01/26 05:32:32;;;;;;;34.47;19.03;;;7.30;57.10;;;;;;4974718;28;20857;-43
2022/01/26 05:34:58;;;;;;;34.53;18.77;;;7.30;57.10;;;;;;4974541;28;20426;-44
2022/01/26 05:37:23;;;;;;;33.10;19.03;;;7.30;56.80;;;;;;4974437;28;20689;-44
2022/01/26 05:39:49;;;;;;;32.03;18.37;;;7.30;56.80;;;;;;4975938;28;20671;-44
2022/01/26 05:42:16;;;;;;;36.23;18.07;;;7.30;56.80;;;;;;4986851;28;20314;-44
2022/01/26 05:44:43;;;;;;;40.33;19.60;;;7.40;56.90;;;;;;4983938;28;20206;-43
2022/01/26 05:47:14;;;;;;;38.47;20.40;;;7.40;56.80;;;;;;4972630;28;20446;-44
2022/01/26 05:49:40;;;;;;;43.17;22.70;;;7.30;57.00;;;;;;4974236;28;21001;-43
2022/01/26 05:52:05;;;;;;;45.83;21.23;;;7.20;57.30;;;;;;4974088;28;20493;-44
2022/01/26 05:54:31;;;;;;;45.83;22.10;;;7.10;57.80;;;;;;4974087;28;20195;-43
2022/01/26 05:56:57;;;;;;;40.37;20.30;;;7.10;58.00;;;;;;4973900;28;20199;-44
2022/01/26 05:59:22;;;;;;;41.93;20.43;;;7.10;58.00;;;;;;4974574;28;20189;-44
2022/01/26 06:01:48;;;;;;;40.93;19.17;;;7.10;58.00;;;;;;4974285;28;20199;-44
2022/01/26 06:04:14;;;;;;;40.13;19.70;;;7.20;57.90;;;;;;4974233;28;20207;-44
2022/01/26 06:06:39;;;;;;;41.00;18.80;;;7.20;57.90;;;;;;4973590;28;20961;-43
2022/01/26 06:09:05;;;;;;;39.60;19.80;;;7.30;57.90;;;;;;4974419;28;20191;-44
2022/01/26 06:11:31;;;;;;;37.70;19.00;;;7.30;57.50;;;;;;4973843;28;20643;-43
2022/01/26 06:13:56;;;;;;;42.80;19.07;;;7.30;57.30;;;;;;4975774;28;20639;-43
2022/01/26 06:16:22;;;;;;;39.27;18.90;;;7.40;57.40;;;;;;4982959;28;20274;-43
2022/01/26 06:18:48;;;;;;;30.93;17.13;;;7.30;58.30;;;;;;4974430;28;20605;-43
2022/01/26 06:21:14;;;;;;;39.50;19.93;;;7.50;59.00;;;;;;4974415;28;20426;-43
2022/01/26 06:23:40;;;;;;;35.70;19.47;;;7.70;58.50;;;;;;4973856;28;20206;-43
2022/01/26 06:26:06;;;;;;;33.30;19.40;;;7.80;58.60;;;;;;4973985;28;20206;-43
2022/01/26 06:28:32;;;;;;;40.70;19.20;;;7.90;57.80;;;;;;4972352;28;20438;-43
2022/01/26 06:31:08;;;;;;;31.83;17.63;;;8.10;57.50;;;;;;4972977;28;20443;-43
2022/01/26 06:33:35;;;;;;;29.47;17.60;;;8.10;56.60;;;;;;4971709;28;20989;-43
2022/01/26 06:36:02;;;;;;;36.17;19.13;;;8.00;56.40;;;;;;4973359;28;20566;-43
2022/01/26 06:38:28;;;;;;;32.53;18.93;;;7.70;55.90;;;;;;4971811;28;20815;-43
2022/01/26 06:40:56;;;;;;;38.60;18.50;;;7.50;57.00;;;;;;4981714;28;20477;-43
2022/01/26 06:43:24;;;;;;;32.47;19.27;;;7.60;57.20;;;;;;4971473;28;20559;-43
2022/01/26 06:45:55;;;;;;;32.80;18.03;;;7.70;57.00;;;;;;4974203;28;20493;-42
2022/01/26 06:51:04;;;;;;;38.23;19.07;;;7.90;56.60;;;;;;4973411;28;20442;-43
2022/01/26 06:53:30;;;;;;;37.40;18.93;;;8.00;56.00;;;;;;4978307;28;20488;-43
2022/01/26 06:55:56;;;;;;;44.57;22.60;;;8.20;56.00;;;;;;4978713;28;20207;-43
2022/01/26 06:58:22;;;;;;;36.00;19.30;;;8.40;55.80;;;;;;4979769;28;20293;-43
2022/01/26 07:00:48;;;;;;;39.97;20.10;;;8.50;55.50;;;;;;4979160;28;20902;-43
2022/01/26 07:03:14;;;;;;;40.20;20.67;;;8.50;55.20;;;;;;4972196;28;20575;-43
2022/01/26 07:05:40;;;;;;;36.87;21.53;;;8.50;55.10;;;;;;4972394;28;20195;-43
2022/01/26 07:08:06;;;;;;;35.93;19.97;;;8.50;55.00;;;;;;4972064;28;20188;-43
2022/01/26 07:10:32;;;;;;;38.53;19.47;;;8.40;55.20;;;;;;4972605;28;20439;-42
2022/01/26 07:12:58;;;;;;;38.93;21.10;;;8.40;55.10;;;;;;4971710;28;20334;-43
2022/01/26 07:21:34;;;;;;;36.10;19.80;;;8.50;54.70;;;;;;4979920;28;20517;-42
2022/01/26 07:23:54;;;;;;;67.83;32.87;;;8.50;54.90;;;;;;4968294;28;20463;-43
2022/01/26 07:26:20;;;;;;;34.47;20.30;;;8.30;54.70;;;;;;4971723;28;20521;-42
2022/01/26 07:28:46;;;;;;;36.87;19.77;;;8.30;54.80;;;;;;4972105;28;20521;-42
2022/01/26 07:31:12;;;;;;;61.93;31.07;;;8.20;54.90;;;;;;4972553;28;20203;-43
2022/01/26 07:33:39;;;;;;;128.67;67.33;;;8.30;55.10;;;;;;4971929;28;20477;-42
2022/01/26 07:36:05;;;;;;;65.60;35.20;;;8.20;55.70;;;;;;4971160;28;20831;-42
2022/01/26 07:38:31;;;;;;;37.80;20.23;;;8.10;55.40;;;;;;4969737;28;20439;-43
2022/01/26 07:40:57;;;;;;;38.87;19.97;;;8.20;55.70;;;;;;4976171;28;20544;-42
2022/01/26 07:43:25;;;;;;;39.50;21.97;;;8.20;55.50;;;;;;4971757;28;20442;-43
2022/01/26 07:45:51;;;;;;;33.90;18.70;;;8.30;55.50;;;;;;4972678;28;20613;-42
2022/01/26 07:48:16;;;;;;;39.60;23.73;;;8.40;54.90;;;;;;4971671;28;20845;-42
2022/01/26 07:50:42;;;;;;;43.37;18.87;;;8.50;54.90;;;;;;4972769;28;20431;-42
2022/01/26 07:53:14;;;;;;;43.83;20.50;;;8.40;54.50;;;;;;4971562;28;20230;-42
2022/01/26 07:55:40;;;;;;;34.00;19.33;;;8.30;54.60;;;;;;4972124;28;20496;-42
2022/01/26 07:58:08;;;;;;;37.47;18.67;;;8.30;54.80;;;;;;4971697;28;20477;-42
2022/01/26 08:00:34;;;;;;;34.83;18.50;;;8.20;54.90;;;;;;4972907;28;20250;-42
2022/01/26 08:02:59;;;;;;;30.63;18.20;;;8.10;55.20;;;;;;4971716;28;20443;-42
2022/01/26 08:05:25;;;;;;;36.53;20.93;;;8.20;55.40;;;;;;4970380;28;20242;-43
2022/01/26 08:07:51;;;;;;;36.30;17.70;;;8.40;55.30;;;;;;4971724;28;20191;-42
2022/01/26 08:10:16;;;;;;;30.97;18.90;;;8.50;54.90;;;;;;4972842;28;20223;-43
2022/01/26 08:12:42;;;;;;;37.77;18.97;;;8.50;55.00;;;;;;4972568;28;20596;-43
2022/01/26 08:15:08;;;;;;;33.00;18.30;;;8.40;55.10;;;;;;4975656;28;20195;-43
2022/01/26 08:17:35;;;;;;;30.73;17.07;;;8.50;54.80;;;;;;4975525;28;21499;-43
2022/01/26 08:20:04;;;;;;;31.40;18.53;;;8.60;54.70;;;;;;4975762;28;20567;-43
2022/01/26 08:22:30;;;;;;;33.93;19.33;;;8.70;54.30;;;;;;4975228;28;20509;-43
2022/01/26 08:24:56;;;;;;;35.27;17.90;;;8.70;54.00;;;;;;4975559;28;20458;-43
2022/01/26 08:27:23;;;;;;;35.73;17.83;;;8.80;53.90;;;;;;4975753;28;20430;-43
2022/01/26 08:29:58;;;;;;;36.97;18.30;;;8.80;53.70;;;;;;4974936;28;20210;-44
2022/01/26 08:32:24;;;;;;;37.27;19.70;;;8.70;53.60;;;;;;4972154;28;20498;-44
2022/01/26 08:34:49;;;;;;;35.67;19.30;;;8.40;53.90;;;;;;4974397;28;20449;-43
2022/01/26 08:37:15;;;;;;;38.83;18.37;;;8.40;54.20;;;;;;4975419;28;20202;-43
2022/01/26 08:39:41;;;;;;;34.90;19.87;;;8.30;54.60;;;;;;4981761;28;20234;-44
2022/01/26 08:42:07;;;;;;;37.00;19.13;;;8.20;55.10;;;;;;4976784;28;20737;-44
2022/01/26 08:44:34;;;;;;;41.47;20.03;;;8.00;55.50;;;;;;4974776;28;20199;-43
2022/01/26 08:47:00;;;;;;;41.33;21.10;;;7.90;55.70;;;;;;4974155;28;20497;-44
2022/01/26 08:49:27;;;;;;;43.33;20.57;;;7.90;56.00;;;;;;4965401;28;20490;-44
2022/01/26 08:51:53;;;;;;;41.67;22.60;;;7.70;56.10;;;;;;4969082;28;20536;-43
2022/01/26 08:54:22;;;;;;;38.30;20.97;;;7.60;56.80;;;;;;4970314;28;20558;-43
2022/01/26 08:56:53;;;;;;;44.13;20.37;;;7.60;56.80;;;;;;4973343;28;20470;-44
2022/01/26 08:59:20;;;;;;;45.90;23.10;;;7.60;57.10;;;;;;4973891;28;20866;-44
2022/01/26 09:01:47;;;;;;;40.00;20.53;;;7.60;57.00;;;;;;4974010;28;20435;-44
2022/01/26 09:04:13;;;;;;;39.57;19.33;;;7.60;57.10;;;;;;4975117;28;20557;-44
2022/01/26 09:06:50;;;;;;;39.83;20.03;;;7.50;57.20;;;;;;4973843;28;20874;-41
2022/01/26 09:09:18;;;;;;;37.03;20.87;;;7.60;57.20;;;;;;4974078;28;20800;-42
2022/01/26 09:11:44;;;;;;;42.30;21.43;;;7.50;57.30;;;;;;4977929;28;20496;-42
2022/01/26 09:14:12;;;;;;;35.70;20.13;;;7.50;57.30;;;;;;4975058;28;21307;-44
2022/01/26 09:16:38;;;;;;;40.40;20.00;;;7.60;57.10;;;;;;4976290;28;20952;-44
2022/01/26 09:19:19;;;;;;;40.50;20.37;;;7.50;57.10;;;;;;4975653;28;20429;-44
2022/01/26 09:21:44;;;;;;;38.00;19.30;;;7.50;57.20;;;;;;4979480;28;20207;-46
2022/01/26 09:24:10;;;;;;;41.97;22.60;;;7.50;57.30;;;;;;4972679;28;20443;-44
2022/01/26 09:26:35;;;;;;;41.07;20.70;;;7.50;57.40;;;;;;4972417;28;20309;-44
2022/01/26 09:29:01;;;;;;;39.80;20.87;;;7.50;57.40;;;;;;4973769;28;20607;-43
2022/01/26 09:31:27;;;;;;;45.13;22.60;;;7.60;57.50;;;;;;4973782;28;20218;-44
2022/01/26 09:33:53;;;;;;;40.60;19.97;;;7.60;57.40;;;;;;4967840;28;20282;-44
2022/01/26 09:36:18;;;;;;;41.80;20.20;;;7.60;57.20;;;;;;4967294;28;20729;-45
2022/01/26 09:38:44;;;;;;;40.30;20.80;;;7.40;57.30;;;;;;4974873;28;20533;-44
2022/01/26 09:41:10;;;;;;;41.30;21.20;;;7.40;57.30;;;;;;4980250;28;20243;-43
2022/01/26 09:43:36;;;;;;;46.03;20.67;;;7.40;57.50;;;;;;4973683;28;20214;-43
2022/01/26 09:46:01;;;;;;;39.40;20.83;;;7.40;57.50;;;;;;4986285;28;20187;-43
2022/01/26 09:48:27;;;;;;;41.73;21.37;;;7.50;57.60;;;;;;4973906;28;20541;-43
2022/01/26 09:50:55;;;;;;;42.87;22.10;;;7.40;57.50;;;;;;4973490;28;20254;-43
2022/01/26 09:53:26;;;;;;;31.37;18.37;;;7.40;57.80;;;;;;4963289;28;20282;-43
2022/01/26 09:55:52;;;;;;;39.83;20.10;;;7.40;57.60;;;;;;4971031;28;20766;-43
2022/01/26 09:58:20;;;;;;;43.53;21.07;;;7.20;57.60;;;;;;4974734;28;20472;-43
2022/01/26 10:00:46;;;;;;;39.53;19.83;;;7.00;58.20;;;;;;4964760;28;20199;-44
2022/01/26 10:03:11;;;;;;;39.03;21.03;;;7.10;58.20;;;;;;4979051;28;20441;-43
2022/01/26 10:05:45;;;;;;;33.73;18.70;;;7.20;58.00;;;;;;4974680;28;20196;-44
2022/01/26 10:19:02;;;;;;;41.73;19.97;;;7.30;57.70;;;;;;4968744;28;20445;-44
2022/01/26 10:21:28;;;;;;;36.60;19.37;;;7.20;58.00;;;;;;4972244;28;20426;-45
2022/01/26 10:23:57;;;;;;;39.43;19.73;;;7.30;58.20;;;;;;4976068;28;20849;-44
2022/01/26 10:26:23;;;;;;;39.67;20.00;;;7.30;57.90;;;;;;4971183;28;20203;-46
2022/01/26 10:28:54;;;;;;;38.97;20.97;;;7.20;58.00;;;;;;4971579;28;20435;-44
2022/01/26 10:31:23;;;;;;;39.13;19.43;;;7.30;58.20;;;;;;4971653;28;20294;-45
2022/01/26 10:34:07;;;;;;;38.20;19.10;;;7.40;58.10;;;;;;4969866;28;20495;-45
2022/01/26 10:37:00;;;;;;;42.07;20.87;;;7.30;58.10;;;;;;4969981;28;20502;-45
2022/01/26 10:41:58;;;;;;;38.30;19.63;;;7.40;58.10;;;;;;4976790;28;20485;-45
2022/01/26 10:44:34;;;;;;;42.13;22.13;;;7.60;57.80;;;;;;4971110;28;20446;-45
2022/01/26 10:47:03;;;;;;;41.67;21.23;;;7.60;57.50;;;;;;4972450;28;20542;-46
2022/01/26 10:49:55;;;;;;;39.37;22.77;;;7.70;57.30;;;;;;4971811;28;20522;-46
2022/01/26 10:52:38;;;;;;;39.50;21.00;;;7.70;57.50;;;;;;4969805;28;20486;-46
2022/01/26 10:55:08;;;;;;;46.23;25.37;;;7.70;56.70;;;;;;4972075;28;20803;-45
2022/01/26 10:57:35;;;;;;;40.97;21.37;;;7.70;56.50;;;;;;4971136;28;20801;-46
2022/01/26 11:00:02;;;;;;;37.93;19.87;;;7.70;56.40;;;;;;4973035;28;20445;-46
2022/01/26 11:02:31;;;;;;;38.43;20.43;;;7.60;57.00;;;;;;4972561;28;21134;-45
2022/01/26 11:04:56;;;;;;;38.20;18.20;;;7.60;57.10;;;;;;4970208;28;20457;-43
2022/01/26 11:07:37;;;;;;;38.00;19.90;;;7.70;57.10;;;;;;4970122;28;20435;-45
2022/01/26 11:10:05;;;;;;;38.70;20.27;;;7.70;57.10;;;;;;4967433;28;20662;-43
2022/01/26 11:12:32;;;;;;;41.93;20.27;;;7.60;57.00;;;;;;4972183;28;20490;-44
2022/01/26 11:15:08;;;;;;;36.13;20.33;;;7.50;57.00;;;;;;4974001;28;20431;-44
2022/01/26 11:17:37;;;;;;;31.20;17.70;;;7.50;57.10;;;;;;4972051;28;20445;-45
2022/01/26 11:20:33;;;;;;;34.23;18.80;;;7.60;57.20;;;;;;4970527;28;20616;-45
2022/01/26 11:23:02;;;;;;;35.57;19.07;;;7.40;57.00;;;;;;4968712;28;20523;-44
2022/01/26 11:25:29;;;;;;;34.07;17.67;;;7.40;57.30;;;;;;4978816;28;20447;-44
2022/01/26 11:27:57;;;;;;;28.47;17.30;;;7.40;57.30;;;;;;4970766;28;20874;-45
2022/01/26 11:30:32;;;;;;;34.87;17.90;;;7.20;57.60;;;;;;4960132;28;20589;-44
2022/01/26 11:33:12;;;;;;;29.30;16.70;;;7.30;57.90;;;;;;4970983;28;20489;-43
2022/01/26 11:35:43;;;;;;;31.53;17.47;;;7.40;57.50;;;;;;4968644;28;20473;-44
2022/01/26 11:38:40;;;;;;;33.43;17.87;;;7.40;57.40;;;;;;4970611;28;20481;-41
2022/01/26 11:46:54;;;;;;;31.40;15.83;;;7.20;57.90;;;;;;4970348;28;20490;-43
2022/01/26 11:49:32;;;;;;;32.97;16.20;;;7.20;58.20;;;;;;4970763;28;20585;-44
2022/01/26 11:51:58;;;;;;;33.77;18.27;;;7.30;58.40;;;;;;4970926;28;20520;-44
2022/01/26 11:54:28;;;;;;;35.20;17.27;;;7.30;58.30;;;;;;4972269;28;20427;-44
2022/01/26 11:57:08;;;;;;;34.40;18.47;;;7.30;58.10;;;;;;4971053;28;20199;-44
2022/01/26 11:59:36;;;;;;;36.40;16.47;;;7.30;57.70;;;;;;4964230;28;20461;-44
2022/01/26 12:02:10;;;;;;;34.63;17.77;;;7.30;58.00;;;;;;4972081;28;20447;-44
2022/01/26 12:04:37;;;;;;;30.73;16.20;;;7.20;58.00;;;;;;4970902;28;20935;-43
2022/01/26 12:07:10;;;;;;;38.00;18.50;;;7.30;58.00;;;;;;4970247;28;20809;-44
2022/01/26 12:09:39;;;;;;;30.70;17.00;;;7.40;57.90;;;;;;4959816;28;20447;-43
2022/01/26 12:12:05;;;;;;;33.57;17.37;;;7.40;57.60;;;;;;4970540;28;20486;-44
2022/01/26 12:14:33;;;;;;;30.10;18.73;;;7.40;57.40;;;;;;4972899;28;20439;-44
2022/01/26 12:17:02;;;;;;;27.93;16.17;;;7.40;57.40;;;;;;4969648;28;20984;-44
2022/01/26 12:19:36;;;;;;;33.33;16.67;;;7.20;57.50;;;;;;4972125;28;20434;-44
2022/01/26 12:37:03;;;;;;;29.90;14.87;;;7.30;57.50;;;;;;4892916;29;20438;-43
2022/01/26 12:41:10;;;;;;;32.13;16.50;;;7.30;57.50;;;;;;4961015;28;20450;-43
2022/01/26 12:42:25;;;;;;;31.03;15.40;;;7.20;57.50;;;;;;4969084;28;20901;-44
2022/01/26 12:45:01;;;;;;;27.70;15.77;;;7.30;57.50;;;;;;4969053;28;20445;-44
2022/01/26 12:47:28;;;;;;;26.60;14.43;;;7.40;57.50;;;;;;4968915;28;20451;-44
2022/01/26 12:49:55;;;;;;;25.00;14.33;;;7.40;57.30;;;;;;4967380;28;20509;-44
2022/01/26 12:52:22;;;;;;;25.73;14.93;;;7.40;57.10;;;;;;4962822;28;21042;-44
2022/01/26 12:54:48;;;;;;;29.90;15.73;;;7.40;57.00;;;;;;4965100;28;20462;-44
2022/01/26 12:57:13;;;;;;;31.17;16.00;;;7.40;56.90;;;;;;4966984;28;20451;-44
2022/01/26 12:59:39;;;;;;;23.03;13.77;;;7.10;57.30;;;;;;4969390;28;20199;-44
2022/01/26 13:02:05;;;;;;;28.87;14.80;;;7.10;57.70;;;;;;4972529;28;20203;-44
2022/01/26 13:04:31;;;;;;;24.30;13.53;;;7.00;57.70;;;;;;4972322;28;20191;-44
2022/01/26 13:06:57;;;;;;;27.67;14.60;;;6.90;57.80;;;;;;4972984;28;20207;-45
2022/01/26 13:09:26;;;;;;;24.03;14.40;;;7.00;57.80;;;;;;4973807;28;20188;-44
2022/01/26 13:11:54;;;;;;;27.10;14.60;;;7.00;57.70;;;;;;4971862;28;20423;-45
2022/01/26 13:14:36;;;;;;;30.37;16.47;;;6.90;58.00;;;;;;4972837;28;20424;-44
2022/01/26 13:17:13;;;;;;;22.10;13.43;;;6.90;58.00;;;;;;4973295;28;20439;-44
2022/01/26 13:20:20;;;;;;;26.33;14.53;;;6.90;57.80;;;;;;4972065;28;20488;-45
2022/01/26 13:28:33;;;;;;;26.03;14.37;;;6.80;58.00;;;;;;4971112;28;20442;-44
2022/01/26 13:42:08;;;;;;;24.97;12.80;;;6.80;58.20;;;;;;4967626;28;21061;-44
2022/01/26 13:47:16;;;;;;;26.77;14.80;;;6.80;58.70;;;;;;4968486;28;20443;-43
2022/01/26 13:58:18;;;;;;;31.90;15.30;;;7.20;58.40;;;;;;4973244;28;20474;-43
2022/01/26 14:00:41;;;;;;;24.37;12.63;;;7.20;58.70;;;;;;4972479;28;20438;-43
2022/01/26 14:03:10;;;;;;;23.27;12.23;;;7.00;58.80;;;;;;4971946;28;20447;-43
2022/01/26 14:05:36;;;;;;;24.00;12.63;;;6.80;58.80;;;;;;4973797;28;20449;-42
2022/01/26 14:08:01;;;;;;;22.07;13.50;;;6.90;58.90;;;;;;4970971;28;20510;-43
2022/01/26 14:10:27;;;;;;;24.90;13.43;;;6.80;58.70;;;;;;4974644;28;20910;-42
2022/01/26 14:12:53;;;;;;;22.53;13.73;;;6.80;58.50;;;;;;4972077;28;20694;-42
2022/01/26 14:15:27;;;;;;;27.77;12.83;;;6.90;58.40;;;;;;4975440;28;20203;-42
2022/01/26 14:20:43;;;;;;;21.63;13.40;;;6.90;58.50;;;;;;4973696;28;20524;-42
2022/01/26 14:23:31;;;;;;;25.90;12.00;;;6.70;58.60;;;;;;4963931;28;20558;-42
2022/01/26 14:25:58;;;;;;;22.60;12.27;;;6.60;59.00;;;;;;4974727;28;20961;-43
2022/01/26 14:28:30;;;;;;;20.80;12.00;;;6.60;59.20;;;;;;4969744;28;20529;-42
2022/01/26 14:34:11;;;;;;;22.53;12.00;;;6.50;59.20;;;;;;4971139;28;20486;-42
2022/01/26 14:53:27;;;;;;;23.57;12.20;;;6.00;60.30;;;;;;4964999;28;21031;-43
2022/01/26 15:30:16;;;;;;;14.03;9.17;;;6.00;60.30;;;;;;4968995;28;20578;-43
2022/01/26 15:41:09;;;;;;;19.40;9.40;;;6.10;59.90;;;;;;4969017;28;20521;-45
2022/01/26 15:48:56;;;;;;;17.53;9.80;;;6.30;59.10;;;;;;4964369;28;20461;-43
2022/01/26 16:07:43;;;;;;;15.27;9.30;;;6.40;59.10;;;;;;4967751;28;20453;-44
2022/01/26 17:24:58;;;;;;;23.10;11.27;;;6.20;58.80;;;;;;4975113;28;20525;-43
2022/01/26 18:15:53;;;;;;;22.43;12.90;;;6.40;58.80;;;;;;4977187;28;20445;-43
2022/01/26 18:50:33;;;;;;;21.60;12.00;;;6.50;57.90;;;;;;4971774;28;20441;-43
2022/01/26 18:52:59;;;;;;;23.53;13.37;;;6.50;58.10;;;;;;4964773;28;20478;-43
2022/01/26 18:55:24;;;;;;;22.40;12.67;;;6.50;58.00;;;;;;4968760;28;20209;-43
2022/01/26 18:57:50;;;;;;;21.73;12.17;;;6.60;57.90;;;;;;4972166;28;20541;-43
2022/01/26 19:00:16;;;;;;;22.53;12.60;;;6.50;58.00;;;;;;4971209;28;20203;-43
2022/01/26 19:02:42;;;;;;;16.93;10.50;;;6.60;58.10;;;;;;4971808;28;20669;-43
2022/01/26 19:05:08;;;;;;;21.60;12.40;;;6.60;58.00;;;;;;4971571;28;20542;-44
2022/01/26 19:07:34;;;;;;;19.47;11.63;;;6.60;57.80;;;;;;4971622;28;20200;-44
2022/01/26 19:10:00;;;;;;;24.37;13.00;;;6.60;57.90;;;;;;4971409;28;20442;-43
2022/01/26 19:12:30;;;;;;;21.77;12.03;;;6.50;58.00;;;;;;4968368;28;20525;-43
2022/01/26 19:15:01;;;;;;;21.97;12.90;;;6.50;58.00;;;;;;4970206;28;20295;-43
2022/01/26 19:17:32;;;;;;;25.30;13.00;;;6.50;57.90;;;;;;4970910;28;20522;-43
2022/01/26 19:20:27;;;;;;;22.67;13.27;;;6.50;57.80;;;;;;4971135;28;20442;-43
2022/01/26 19:25:55;;;;;;;25.10;13.10;;;6.60;57.70;;;;;;4972626;28;20505;-43
2022/01/26 19:28:29;;;;;;;27.10;13.57;;;6.50;58.00;;;;;;4966850;28;20513;-43
2022/01/26 19:52:10;;;;;;;25.97;13.63;;;6.70;58.30;;;;;;4968029;28;20473;-43
2022/01/26 19:54:39;;;;;;;23.47;11.77;;;6.70;58.20;;;;;;4964914;28;20499;-43